sensor_id;sensor_type;location;lat;lon;timestamp;pressure;altitude;pressure_sealevel;temperature;humidity
30421;BME280;17218;54.070;10.012;2023-08-20T00:01:56;101857.31;;;20.11;100.00
30421;BME280;17218;54.070;10.012;2023-08-20T00:04:25;101854.78;;;20.07;100.00
30421;BME280;17218;54.070;10.012;2023-08-20T00:06:52;101858.38;;;20.04;100.00
30421;BME280;17218;54.070;10.012;2023-08-20T00:09:19;101858.53;;;19.98;100.00
30421;BME280;17218;54.070;10.012;2023-08-20T00:11:45;101857.91;;;19.89;100.00
30421;BME280;17218;54.070;10.012;2023-08-20T00:14:15;101864.28;;;19.81;100.00
30421;BME280;17218;54.070;10.012;2023-08-20T00:16:43;101870.50;;;19.78;100.00
30421;BME280;17218;54.070;10.012;2023-08-20T00:19:10;101877.56;;;19.76;100.00
30421;BME280;17218;54.070;10.012;2023-08-20T00:21:41;101886.47;;;19.70;100.00
30421;BME280;17218;54.070;10.012;2023-08-20T00:24:09;101878.72;;;19.65;100.00
30421;BME280;17218;54.070;10.012;2023-08-20T00:26:36;101885.84;;;19.62;100.00
30421;BME280;17218;54.070;10.012;2023-08-20T00:29:03;101886.00;;;19.55;100.00
30421;BME280;17218;54.070;10.012;2023-08-20T00:31:30;101892.16;;;19.54;100.00
30421;BME280;17218;54.070;10.012;2023-08-20T00:33:57;101898.41;;;19.50;100.00
30421;BME280;17218;54.070;10.012;2023-08-20T00:36:24;101889.72;;;19.47;100.00
30421;BME280;17218;54.070;10.012;2023-08-20T00:38:50;101892.41;;;19.45;100.00
30421;BME280;17218;54.070;10.012;2023-08-20T00:41:17;101894.25;;;19.41;100.00
30421;BME280;17218;54.070;10.012;2023-08-20T00:43:44;101899.63;;;19.37;100.00
30421;BME280;17218;54.070;10.012;2023-08-20T00:46:10;101897.97;;;19.33;100.00
30421;BME280;17218;54.070;10.012;2023-08-20T00:48:37;101896.25;;;19.31;100.00
30421;BME280;17218;54.070;10.012;2023-08-20T00:51:05;101899.81;;;19.29;100.00
30421;BME280;17218;54.070;10.012;2023-08-20T00:53:31;101899.00;;;19.27;100.00
30421;BME280;17218;54.070;10.012;2023-08-20T00:55:58;101889.53;;;19.21;100.00
30421;BME280;17218;54.070;10.012;2023-08-20T00:58:24;101892.19;;;19.18;100.00
30421;BME280;17218;54.070;10.012;2023-08-20T01:00:51;101892.28;;;19.15;100.00
30421;BME280;17218;54.070;10.012;2023-08-20T01:03:17;101888.84;;;19.11;100.00
30421;BME280;17218;54.070;10.012;2023-08-20T01:05:48;101894.22;;;19.06;100.00
30421;BME280;17218;54.070;10.012;2023-08-20T01:08:25;101888.19;;;19.03;100.00
30421;BME280;17218;54.070;10.012;2023-08-20T01:10:58;101896.13;;;19.00;100.00
30421;BME280;17218;54.070;10.012;2023-08-20T01:13:27;101887.47;;;18.96;100.00
30421;BME280;17218;54.070;10.012;2023-08-20T01:15:54;101896.31;;;18.92;100.00
30421;BME280;17218;54.070;10.012;2023-08-20T01:18:20;101900.81;;;18.87;100.00
30421;BME280;17218;54.070;10.012;2023-08-20T01:20:51;101886.91;;;18.83;100.00
30421;BME280;17218;54.070;10.012;2023-08-20T01:23:48;101893.97;;;18.79;100.00
30421;BME280;17218;54.070;10.012;2023-08-20T01:26:35;101892.25;;;18.78;100.00
30421;BME280;17218;54.070;10.012;2023-08-20T01:29:09;101899.28;;;18.78;100.00
30421;BME280;17218;54.070;10.012;2023-08-20T01:31:37;101900.19;;;18.77;100.00
30421;BME280;17218;54.070;10.012;2023-08-20T01:34:04;101902.75;;;18.78;100.00
30421;BME280;17218;54.070;10.012;2023-08-20T01:36:31;101910.69;;;18.77;100.00
30421;BME280;17218;54.070;10.012;2023-08-20T01:38:57;101908.84;;;18.79;100.00
30421;BME280;17218;54.070;10.012;2023-08-20T01:41:24;101908.84;;;18.79;100.00
30421;BME280;17218;54.070;10.012;2023-08-20T01:43:50;101907.09;;;18.79;100.00
30421;BME280;17218;54.070;10.012;2023-08-20T01:46:21;101901.91;;;18.78;100.00
30421;BME280;17218;54.070;10.012;2023-08-20T01:48:47;101902.19;;;18.65;100.00
30421;BME280;17218;54.070;10.012;2023-08-20T01:51:14;101914.34;;;18.68;100.00
30421;BME280;17218;54.070;10.012;2023-08-20T01:53:40;101916.13;;;18.67;100.00
30421;BME280;17218;54.070;10.012;2023-08-20T01:56:10;101904.72;;;18.68;100.00
30421;BME280;17218;54.070;10.012;2023-08-20T01:58:37;101913.41;;;18.72;100.00
30421;BME280;17218;54.070;10.012;2023-08-20T02:01:04;101911.72;;;18.68;100.00
30421;BME280;17218;54.070;10.012;2023-08-20T02:03:31;101911.72;;;18.68;100.00
30421;BME280;17218;54.070;10.012;2023-08-20T02:05:58;101904.84;;;18.64;100.00
30421;BME280;17218;54.070;10.012;2023-08-20T02:08:24;101907.50;;;18.62;100.00
30421;BME280;17218;54.070;10.012;2023-08-20T02:10:59;101909.28;;;18.62;100.00
30421;BME280;17218;54.070;10.012;2023-08-20T02:13:26;101913.75;;;18.55;100.00
30421;BME280;17218;54.070;10.012;2023-08-20T02:15:57;101904.97;;;18.57;100.00
30421;BME280;17218;54.070;10.012;2023-08-20T02:18:24;101916.34;;;18.58;100.00
30421;BME280;17218;54.070;10.012;2023-08-20T02:20:52;101899.66;;;18.60;100.00
30421;BME280;17218;54.070;10.012;2023-08-20T02:23:18;101895.22;;;18.63;100.00
30421;BME280;17218;54.070;10.012;2023-08-20T02:25:44;101903.16;;;18.61;100.00
30421;BME280;17218;54.070;10.012;2023-08-20T02:28:11;101901.53;;;18.55;100.00
30421;BME280;17218;54.070;10.012;2023-08-20T02:30:40;101911.13;;;18.56;100.00
30421;BME280;17218;54.070;10.012;2023-08-20T02:33:06;101910.31;;;18.54;100.00
30421;BME280;17218;54.070;10.012;2023-08-20T02:35:33;101906.94;;;18.47;100.00
30421;BME280;17218;54.070;10.012;2023-08-20T02:38:01;101915.72;;;18.46;100.00
30421;BME280;17218;54.070;10.012;2023-08-20T02:40:27;101919.13;;;18.50;100.00
30421;BME280;17218;54.070;10.012;2023-08-20T02:42:54;101920.00;;;18.51;100.00
30421;BME280;17218;54.070;10.012;2023-08-20T02:45:20;101914.78;;;18.49;100.00
30421;BME280;17218;54.070;10.012;2023-08-20T02:47:47;101914.00;;;18.44;100.00
30421;BME280;17218;54.070;10.012;2023-08-20T02:50:14;101904.63;;;18.33;100.00
30421;BME280;17218;54.070;10.012;2023-08-20T02:52:41;101915.03;;;18.36;100.00
30421;BME280;17218;54.070;10.012;2023-08-20T02:55:09;101926.28;;;18.43;100.00
30421;BME280;17218;54.070;10.012;2023-08-20T02:57:36;101919.16;;;18.48;100.00
30421;BME280;17218;54.070;10.012;2023-08-20T03:00:03;101920.91;;;18.48;100.00
30421;BME280;17218;54.070;10.012;2023-08-20T03:02:30;101922.66;;;18.49;100.00
30421;BME280;17218;54.070;10.012;2023-08-20T03:04:56;101921.88;;;18.45;100.00
30421;BME280;17218;54.070;10.012;2023-08-20T03:07:23;101920.00;;;18.51;100.00
30421;BME280;17218;54.070;10.012;2023-08-20T03:09:49;101930.47;;;18.52;100.00
30421;BME280;17218;54.070;10.012;2023-08-20T03:12:17;101928.72;;;18.53;100.00
30421;BME280;17218;54.070;10.012;2023-08-20T03:14:43;101934.75;;;18.55;100.00
30421;BME280;17218;54.070;10.012;2023-08-20T03:17:10;101940.84;;;18.57;100.00
30421;BME280;17218;54.070;10.012;2023-08-20T03:19:36;101938.22;;;18.57;100.00
30421;BME280;17218;54.070;10.012;2023-08-20T03:22:03;101934.75;;;18.56;100.00
30421;BME280;17218;54.070;10.012;2023-08-20T03:24:29;101927.88;;;18.51;100.00
30421;BME280;17218;54.070;10.012;2023-08-20T03:26:56;101934.94;;;18.47;100.00
30421;BME280;17218;54.070;10.012;2023-08-20T03:29:23;101935.81;;;18.46;100.00
30421;BME280;17218;54.070;10.012;2023-08-20T03:31:50;101935.16;;;18.38;100.00
30421;BME280;17218;54.070;10.012;2023-08-20T03:34:16;101936.09;;;18.33;100.00
30421;BME280;17218;54.070;10.012;2023-08-20T03:36:43;101942.19;;;18.35;100.00
30421;BME280;17218;54.070;10.012;2023-08-20T03:39:09;101939.47;;;18.39;100.00
30421;BME280;17218;54.070;10.012;2023-08-20T03:41:36;101937.00;;;18.32;100.00
30421;BME280;17218;54.070;10.012;2023-08-20T03:44:03;101946.69;;;18.29;100.00
30421;BME280;17218;54.070;10.012;2023-08-20T03:46:31;101949.31;;;18.27;100.00
30421;BME280;17218;54.070;10.012;2023-08-20T03:48:57;101950.28;;;18.24;100.00
30421;BME280;17218;54.070;10.012;2023-08-20T03:51:23;101948.63;;;18.19;100.00
30421;BME280;17218;54.070;10.012;2023-08-20T03:53:50;101948.66;;;18.17;100.00
30421;BME280;17218;54.070;10.012;2023-08-20T03:56:16;101955.69;;;18.15;100.00
30421;BME280;17218;54.070;10.012;2023-08-20T03:58:43;101954.03;;;18.09;100.00
30421;BME280;17218;54.070;10.012;2023-08-20T04:01:09;101959.28;;;18.09;100.00
30421;BME280;17218;54.070;10.012;2023-08-20T04:03:37;101966.28;;;18.07;100.00
30421;BME280;17218;54.070;10.012;2023-08-20T04:06:03;101975.91;;;18.08;100.00
30421;BME280;17218;54.070;10.012;2023-08-20T04:08:30;101967.25;;;18.05;100.00
30421;BME280;17218;54.070;10.012;2023-08-20T04:10:56;101974.28;;;18.03;100.00
30421;BME280;17218;54.070;10.012;2023-08-20T04:13:23;101973.34;;;18.04;100.00
30421;BME280;17218;54.070;10.012;2023-08-20T04:15:49;101982.97;;;18.03;100.00
30421;BME280;17218;54.070;10.012;2023-08-20T04:18:16;101978.63;;;18.02;100.00
30421;BME280;17218;54.070;10.012;2023-08-20T04:20:44;101979.53;;;18.01;100.00
30421;BME280;17218;54.070;10.012;2023-08-20T04:23:10;101976.13;;;17.96;100.00
30421;BME280;17218;54.070;10.012;2023-08-20T04:25:37;101976.22;;;17.91;100.00
30421;BME280;17218;54.070;10.012;2023-08-20T04:28:03;101976.31;;;17.85;100.00
30421;BME280;17218;54.070;10.012;2023-08-20T04:30:30;101984.28;;;17.80;100.00
30421;BME280;17218;54.070;10.012;2023-08-20T04:32:56;101990.41;;;17.81;100.00
30421;BME280;17218;54.070;10.012;2023-08-20T04:35:23;101982.47;;;17.84;100.00
30421;BME280;17218;54.070;10.012;2023-08-20T04:37:51;101977.19;;;17.85;100.00
30421;BME280;17218;54.070;10.012;2023-08-20T04:40:17;101986.78;;;17.86;100.00
30421;BME280;17218;54.070;10.012;2023-08-20T04:42:44;101985.00;;;17.88;100.00
30421;BME280;17218;54.070;10.012;2023-08-20T04:45:10;101981.41;;;17.94;100.00
30421;BME280;17218;54.070;10.012;2023-08-20T04:47:37;101983.03;;;18.00;100.00
30421;BME280;17218;54.070;10.012;2023-08-20T04:50:04;101973.50;;;17.97;100.00
30421;BME280;17218;54.070;10.012;2023-08-20T04:52:32;101971.00;;;17.90;100.00
30421;BME280;17218;54.070;10.012;2023-08-20T04:55:00;101973.63;;;17.90;100.00
30421;BME280;17218;54.070;10.012;2023-08-20T04:57:26;101974.72;;;17.77;100.00
30421;BME280;17218;54.070;10.012;2023-08-20T04:59:53;101972.94;;;17.80;100.00
30421;BME280;17218;54.070;10.012;2023-08-20T05:02:19;101964.31;;;17.73;100.00
30421;BME280;17218;54.070;10.012;2023-08-20T05:04:46;101966.13;;;17.69;100.00
30421;BME280;17218;54.070;10.012;2023-08-20T05:07:12;101965.25;;;17.69;100.00
30421;BME280;17218;54.070;10.012;2023-08-20T05:09:39;101965.16;;;17.73;100.00
30421;BME280;17218;54.070;10.012;2023-08-20T05:12:08;101962.44;;;17.80;100.00
30421;BME280;17218;54.070;10.012;2023-08-20T05:14:35;101956.25;;;17.84;100.00
30421;BME280;17218;54.070;10.012;2023-08-20T05:17:01;101960.53;;;17.90;100.00
30421;BME280;17218;54.070;10.012;2023-08-20T05:19:28;101962.31;;;17.87;100.00
30421;BME280;17218;54.070;10.012;2023-08-20T05:21:54;101960.56;;;17.88;100.00
30421;BME280;17218;54.070;10.012;2023-08-20T05:24:23;101959.59;;;17.92;100.00
30421;BME280;17218;54.070;10.012;2023-08-20T05:27:03;101961.19;;;17.99;100.00
30421;BME280;17218;54.070;10.012;2023-08-20T05:29:31;101954.13;;;18.03;100.00
30421;BME280;17218;54.070;10.012;2023-08-20T05:31:57;101952.34;;;18.05;100.00
30421;BME280;17218;54.070;10.012;2023-08-20T05:34:24;101951.50;;;18.05;100.00
30421;BME280;17218;54.070;10.012;2023-08-20T05:36:50;101939.47;;;17.94;100.00
30421;BME280;17218;54.070;10.012;2023-08-20T05:39:17;101938.59;;;17.95;100.00
30421;BME280;17218;54.070;10.012;2023-08-20T05:41:43;101942.03;;;17.96;100.00
30421;BME280;17218;54.070;10.012;2023-08-20T05:44:10;101951.63;;;17.98;100.00
30421;BME280;17218;54.070;10.012;2023-08-20T05:46:38;101974.22;;;18.04;100.00
30421;BME280;17218;54.070;10.012;2023-08-20T05:49:06;101989.91;;;18.07;100.00
30421;BME280;17218;54.070;10.012;2023-08-20T05:51:32;101982.97;;;18.03;100.00
30421;BME280;17218;54.070;10.012;2023-08-20T05:53:59;101985.72;;;17.97;100.00
30421;BME280;17218;54.070;10.012;2023-08-20T05:56:25;101998.09;;;17.88;100.00
30421;BME280;17218;54.070;10.012;2023-08-20T05:58:51;102002.41;;;17.93;100.00
30421;BME280;17218;54.070;10.012;2023-08-20T06:01:18;101992.66;;;17.99;100.00
30421;BME280;17218;54.070;10.012;2023-08-20T06:03:46;101996.41;;;17.86;100.00
30421;BME280;17218;54.070;10.012;2023-08-20T06:06:12;102000.78;;;17.85;100.00
30421;BME280;17218;54.070;10.012;2023-08-20T06:08:39;102008.53;;;17.92;100.00
30421;BME280;17218;54.070;10.012;2023-08-20T06:11:05;102007.53;;;17.99;100.00
30421;BME280;17218;54.070;10.012;2023-08-20T06:13:32;102014.41;;;18.06;100.00
30421;BME280;17218;54.070;10.012;2023-08-20T06:15:58;102015.25;;;18.08;100.00
30421;BME280;17218;54.070;10.012;2023-08-20T06:18:25;102017.75;;;18.15;100.00
30421;BME280;17218;54.070;10.012;2023-08-20T06:20:52;102012.31;;;18.26;100.00
30421;BME280;17218;54.070;10.012;2023-08-20T06:23:19;102010.38;;;18.35;100.00
30421;BME280;17218;54.070;10.012;2023-08-20T06:25:45;102015.44;;;18.45;100.00
30421;BME280;17218;54.070;10.012;2023-08-20T06:28:12;102015.25;;;18.54;100.00
30421;BME280;17218;54.070;10.012;2023-08-20T06:30:38;102018.59;;;18.61;100.00
30421;BME280;17218;54.070;10.012;2023-08-20T06:33:05;102026.16;;;18.75;100.00
30421;BME280;17218;54.070;10.012;2023-08-20T06:35:32;102003.34;;;18.80;100.00
30421;BME280;17218;54.070;10.012;2023-08-20T06:38:00;101999.72;;;18.86;100.00
30421;BME280;17218;54.070;10.012;2023-08-20T06:40:27;101994.31;;;18.92;100.00
30421;BME280;17218;54.070;10.012;2023-08-20T06:42:53;101995.03;;;18.99;100.00
30421;BME280;17218;54.070;10.012;2023-08-20T06:45:20;102005.53;;;18.99;100.00
30421;BME280;17218;54.070;10.012;2023-08-20T06:47:46;102011.59;;;19.03;100.00
30421;BME280;17218;54.070;10.012;2023-08-20T06:50:13;102006.47;;;18.97;100.00
30421;BME280;17218;54.070;10.012;2023-08-20T06:52:39;102018.66;;;19.01;100.00
30421;BME280;17218;54.070;10.012;2023-08-20T06:55:08;102016.91;;;19.00;100.00
30421;BME280;17218;54.070;10.012;2023-08-20T06:57:35;102005.50;;;19.01;100.00
30421;BME280;17218;54.070;10.012;2023-08-20T07:00:02;102013.41;;;18.99;100.00
30421;BME280;17218;54.070;10.012;2023-08-20T07:02:29;102019.47;;;19.03;100.00
30421;BME280;17218;54.070;10.012;2023-08-20T07:04:56;102019.28;;;19.11;100.00
30421;BME280;17218;54.070;10.012;2023-08-20T07:07:23;102029.75;;;19.14;100.00
30421;BME280;17218;54.070;10.012;2023-08-20T07:09:49;102039.19;;;19.23;100.00
30421;BME280;17218;54.070;10.012;2023-08-20T07:12:17;102042.44;;;19.34;100.00
30421;BME280;17218;54.070;10.012;2023-08-20T07:14:44;102045.63;;;19.47;100.00
30421;BME280;17218;54.070;10.012;2023-08-20T07:17:10;102053.25;;;19.57;100.00
30421;BME280;17218;54.070;10.012;2023-08-20T07:19:37;102039.25;;;19.58;100.00
30421;BME280;17218;54.070;10.012;2023-08-20T07:22:03;102028.03;;;19.49;100.00
30421;BME280;17218;54.070;10.012;2023-08-20T07:24:30;102033.50;;;19.41;100.00
30421;BME280;17218;54.070;10.012;2023-08-20T07:27:00;102034.34;;;19.42;100.00
30421;BME280;17218;54.070;10.012;2023-08-20T07:29:29;102024.84;;;19.36;100.00
30421;BME280;17218;54.070;10.012;2023-08-20T07:31:56;102037.06;;;19.39;100.00
30421;BME280;17218;54.070;10.012;2023-08-20T07:34:22;102040.56;;;19.39;100.00
30421;BME280;17218;54.070;10.012;2023-08-20T07:36:49;102040.16;;;19.55;100.00
30421;BME280;17218;54.070;10.012;2023-08-20T07:39:15;102038.22;;;19.63;100.00
30421;BME280;17218;54.070;10.012;2023-08-20T07:41:42;102025.22;;;19.57;100.00
30421;BME280;17218;54.070;10.012;2023-08-20T07:44:08;102034.78;;;19.61;100.00
30421;BME280;17218;54.070;10.012;2023-08-20T07:46:36;102035.66;;;19.60;100.00
30421;BME280;17218;54.070;10.012;2023-08-20T07:49:03;102037.72;;;19.49;100.00
30421;BME280;17218;54.070;10.012;2023-08-20T07:51:30;102041.00;;;19.57;100.00
30421;BME280;17218;54.070;10.012;2023-08-20T07:53:56;102045.25;;;19.63;100.00
30421;BME280;17218;54.070;10.012;2023-08-20T07:56:24;102056.31;;;19.76;100.00
30421;BME280;17218;54.070;10.012;2023-08-20T07:58:51;102043.03;;;19.82;100.00
30421;BME280;17218;54.070;10.012;2023-08-20T08:01:17;102047.94;;;19.95;100.00
30421;BME280;17218;54.070;10.012;2023-08-20T08:03:45;102032.13;;;19.96;100.00
30421;BME280;17218;54.070;10.012;2023-08-20T08:06:12;102034.66;;;19.99;100.00
30421;BME280;17218;54.070;10.012;2023-08-20T08:08:42;102035.63;;;19.97;100.00
30421;BME280;17218;54.070;10.012;2023-08-20T08:11:09;102026.91;;;19.95;100.00
30421;BME280;17218;54.070;10.012;2023-08-20T08:13:36;102029.38;;;20.01;100.00
30421;BME280;17218;54.070;10.012;2023-08-20T08:16:02;102024.09;;;20.02;100.00
30421;BME280;17218;54.070;10.012;2023-08-20T08:18:29;102025.50;;;20.16;100.00
30421;BME280;17218;54.070;10.012;2023-08-20T08:20:57;102033.94;;;20.28;100.00
30421;BME280;17218;54.070;10.012;2023-08-20T08:23:25;102028.22;;;20.45;100.00
30421;BME280;17218;54.070;10.012;2023-08-20T08:25:51;102027.03;;;20.55;100.00
30421;BME280;17218;54.070;10.012;2023-08-20T08:28:23;102030.13;;;20.70;100.00
30421;BME280;17218;54.070;10.012;2023-08-20T08:30:50;102030.91;;;20.73;100.00
30421;BME280;17218;54.070;10.012;2023-08-20T08:33:16;102028.91;;;20.82;100.00
30421;BME280;17218;54.070;10.012;2023-08-20T08:35:43;102045.22;;;20.93;100.00
30421;BME280;17218;54.070;10.012;2023-08-20T08:38:10;102034.13;;;20.83;100.00
30421;BME280;17218;54.070;10.012;2023-08-20T08:40:39;102029.78;;;20.81;100.00
30421;BME280;17218;54.070;10.012;2023-08-20T08:43:07;102037.53;;;20.87;100.00
30421;BME280;17218;54.070;10.012;2023-08-20T08:45:39;102018.00;;;20.94;100.00
30421;BME280;17218;54.070;10.012;2023-08-20T08:48:06;102027.28;;;21.06;100.00
30421;BME280;17218;54.070;10.012;2023-08-20T08:50:33;102024.25;;;21.20;100.00
30421;BME280;17218;54.070;10.012;2023-08-20T08:53:00;102011.97;;;21.19;100.00
30421;BME280;17218;54.070;10.012;2023-08-20T08:55:28;102011.31;;;21.13;100.00
30421;BME280;17218;54.070;10.012;2023-08-20T08:57:55;102014.22;;;21.03;100.00
30421;BME280;17218;54.070;10.012;2023-08-20T09:03:19;102015.00;;;21.07;100.00
30421;BME280;17218;54.070;10.012;2023-08-20T09:03:45;102012.84;;;21.20;100.00
30421;BME280;17218;54.070;10.012;2023-08-20T09:06:11;102023.03;;;21.31;100.00
30421;BME280;17218;54.070;10.012;2023-08-20T09:08:38;102026.38;;;21.36;100.00
30421;BME280;17218;54.070;10.012;2023-08-20T09:11:05;102017.16;;;21.50;100.00
30421;BME280;17218;54.070;10.012;2023-08-20T09:13:34;102016.66;;;21.64;100.00
30421;BME280;17218;54.070;10.012;2023-08-20T09:16:03;102005.66;;;21.78;100.00
30421;BME280;17218;54.070;10.012;2023-08-20T09:18:30;102014.19;;;21.86;100.00
30421;BME280;17218;54.070;10.012;2023-08-20T09:20:57;102015.63;;;21.95;100.00
30421;BME280;17218;54.070;10.012;2023-08-20T09:23:28;102005.81;;;22.00;100.00
30421;BME280;17218;54.070;10.012;2023-08-20T09:25:55;102009.88;;;22.09;100.00
30421;BME280;17218;54.070;10.012;2023-08-20T09:28:22;102008.88;;;22.13;100.00
30421;BME280;17218;54.070;10.012;2023-08-20T09:30:56;102006.31;;;22.10;100.00
30421;BME280;17218;54.070;10.012;2023-08-20T09:33:23;102002.41;;;21.97;100.00
30421;BME280;17218;54.070;10.012;2023-08-20T09:35:49;102003.19;;;21.99;100.00
30421;BME280;17218;54.070;10.012;2023-08-20T09:43:28;101990.34;;;22.15;100.00
30421;BME280;17218;54.070;10.012;2023-08-20T09:45:58;101994.41;;;22.24;100.00
30421;BME280;17218;54.070;10.012;2023-08-20T09:48:27;101991.88;;;22.21;100.00
30421;BME280;17218;54.070;10.012;2023-08-20T09:50:59;101986.75;;;22.16;100.00
30421;BME280;17218;54.070;10.012;2023-08-20T09:53:27;101991.91;;;22.19;100.00
30421;BME280;17218;54.070;10.012;2023-08-20T09:56:02;101984.72;;;22.24;100.00
30421;BME280;17218;54.070;10.012;2023-08-20T09:58:31;101983.91;;;22.22;100.00
30421;BME280;17218;54.070;10.012;2023-08-20T10:00:58;101975.88;;;22.25;100.00
30421;BME280;17218;54.070;10.012;2023-08-20T10:03:25;101980.69;;;22.38;100.00
30421;BME280;17218;54.070;10.012;2023-08-20T10:05:53;101984.00;;;22.43;100.00
30421;BME280;17218;54.070;10.012;2023-08-20T10:08:20;101979.03;;;22.35;100.00
30421;BME280;17218;54.070;10.012;2023-08-20T10:10:46;101980.75;;;22.36;100.00
30421;BME280;17218;54.070;10.012;2023-08-20T10:13:13;101978.84;;;22.40;100.00
30421;BME280;17218;54.070;10.012;2023-08-20T10:15:42;101987.44;;;22.45;100.00
30421;BME280;17218;54.070;10.012;2023-08-20T10:18:09;101984.53;;;22.53;100.00
30421;BME280;17218;54.070;10.012;2023-08-20T10:20:38;101974.38;;;22.66;100.00
30421;BME280;17218;54.070;10.012;2023-08-20T10:23:04;101978.06;;;22.84;100.00
30421;BME280;17218;54.070;10.012;2023-08-20T10:25:31;101977.03;;;22.88;100.00
30421;BME280;17218;54.070;10.012;2023-08-20T10:28:11;101972.84;;;22.83;100.00
30421;BME280;17218;54.070;10.012;2023-08-20T10:31:07;101968.00;;;22.94;100.00
30421;BME280;17218;54.070;10.012;2023-08-20T10:33:34;101966.63;;;23.06;100.00
30421;BME280;17218;54.070;10.012;2023-08-20T10:36:09;101959.66;;;23.26;100.00
30421;BME280;17218;54.070;10.012;2023-08-20T10:38:36;101961.59;;;23.43;100.00
30421;BME280;17218;54.070;10.012;2023-08-20T10:41:06;101965.13;;;23.65;100.00
30421;BME280;17218;54.070;10.012;2023-08-20T10:43:40;101956.50;;;23.80;100.00
30421;BME280;17218;54.070;10.012;2023-08-20T10:46:17;101966.53;;;23.93;100.00
30421;BME280;17218;54.070;10.012;2023-08-20T10:48:48;101962.03;;;23.95;100.00
30421;BME280;17218;54.070;10.012;2023-08-20T10:51:16;101973.00;;;24.06;100.00
30421;BME280;17218;54.070;10.012;2023-08-20T10:53:49;101974.84;;;24.25;100.00
30421;BME280;17218;54.070;10.012;2023-08-20T10:56:48;101973.03;;;24.45;100.00
30421;BME280;17218;54.070;10.012;2023-08-20T11:02:17;101966.75;;;24.48;100.00
30421;BME280;17218;54.070;10.012;2023-08-20T11:04:52;101971.63;;;24.57;100.00
30421;BME280;17218;54.070;10.012;2023-08-20T11:07:19;101963.34;;;24.63;100.00
30421;BME280;17218;54.070;10.012;2023-08-20T11:09:49;101971.09;;;24.49;100.00
30421;BME280;17218;54.070;10.012;2023-08-20T11:12:30;101960.25;;;24.73;100.00
30421;BME280;17218;54.070;10.012;2023-08-20T11:15:00;101949.72;;;24.90;100.00
30421;BME280;17218;54.070;10.012;2023-08-20T11:17:48;101962.69;;;25.32;100.00
30421;BME280;17218;54.070;10.012;2023-08-20T11:20:33;101962.50;;;25.89;100.00
30421;BME280;17218;54.070;10.012;2023-08-20T11:23:14;101955.63;;;26.18;100.00
30421;BME280;17218;54.070;10.012;2023-08-20T11:25:42;101965.03;;;26.73;100.00
30421;BME280;17218;54.070;10.012;2023-08-20T11:28:08;101975.13;;;27.14;100.00
30421;BME280;17218;54.070;10.012;2023-08-20T11:30:35;101974.16;;;27.15;100.00
30421;BME280;17218;54.070;10.012;2023-08-20T11:33:03;101978.84;;;27.26;100.00
30421;BME280;17218;54.070;10.012;2023-08-20T11:35:30;101966.94;;;27.63;100.00
30421;BME280;17218;54.070;10.012;2023-08-20T11:37:58;101973.09;;;28.51;100.00
30421;BME280;17218;54.070;10.012;2023-08-20T11:40:24;101978.06;;;28.43;100.00
30421;BME280;17218;54.070;10.012;2023-08-20T11:42:52;101968.19;;;28.86;100.00
30421;BME280;17218;54.070;10.012;2023-08-20T11:45:19;101975.03;;;28.90;100.00
30421;BME280;17218;54.070;10.012;2023-08-20T11:50:13;101978.81;;;28.30;100.00
30421;BME280;17218;54.070;10.012;2023-08-20T11:52:39;101970.66;;;27.60;100.00
30421;BME280;17218;54.070;10.012;2023-08-20T11:55:08;101972.47;;;27.14;100.00
30421;BME280;17218;54.070;10.012;2023-08-20T11:57:38;101971.41;;;27.17;100.00
30421;BME280;17218;54.070;10.012;2023-08-20T12:00:54;101967.81;;;27.93;100.00
30421;BME280;17218;54.070;10.012;2023-08-20T12:03:40;101965.97;;;29.46;100.00
30421;BME280;17218;54.070;10.012;2023-08-20T12:06:30;101967.25;;;29.93;100.00
30421;BME280;17218;54.070;10.012;2023-08-20T12:09:17;101958.66;;;30.27;100.00
30421;BME280;17218;54.070;10.012;2023-08-20T12:11:48;101967.94;;;31.19;100.00
30421;BME280;17218;54.070;10.012;2023-08-20T12:14:15;101954.91;;;32.41;100.00
30421;BME280;17218;54.070;10.012;2023-08-20T12:16:42;101956.50;;;33.40;100.00
30421;BME280;17218;54.070;10.012;2023-08-20T12:19:08;101952.91;;;34.34;79.93
30421;BME280;17218;54.070;10.012;2023-08-20T12:21:44;101958.25;;;34.73;78.56
30421;BME280;17218;54.070;10.012;2023-08-20T12:24:11;101964.03;;;35.08;87.58
30421;BME280;17218;54.070;10.012;2023-08-20T12:26:38;101955.06;;;35.66;88.35
30421;BME280;17218;54.070;10.012;2023-08-20T12:29:06;101957.13;;;35.54;79.74
30421;BME280;17218;54.070;10.012;2023-08-20T12:31:33;101964.13;;;36.03;85.38
30421;BME280;17218;54.070;10.012;2023-08-20T12:34:00;101950.78;;;36.30;81.10
30421;BME280;17218;54.070;10.012;2023-08-20T12:36:27;101957.06;;;36.20;75.07
30421;BME280;17218;54.070;10.012;2023-08-20T12:38:58;101956.28;;;35.53;78.93
30421;BME280;17218;54.070;10.012;2023-08-20T12:41:28;101962.38;;;34.48;75.33
30421;BME280;17218;54.070;10.012;2023-08-20T12:44:13;101957.88;;;33.66;90.71
30421;BME280;17218;54.070;10.012;2023-08-20T12:46:40;101959.78;;;33.01;83.18
30421;BME280;17218;54.070;10.012;2023-08-20T12:49:31;101958.88;;;33.12;95.27